createdAt,value
2022-11-11T00:03:01.982Z,0.0
2022-11-11T00:08:02.324Z,0.0
2022-11-11T00:12:58.663Z,0.0
2022-11-11T00:18:01.189Z,0.0
2022-11-11T00:23:08.004Z,0.0
2022-11-11T00:28:14.133Z,0.0
2022-11-11T00:33:25.265Z,0.0
2022-11-11T00:38:31.806Z,0.0
2022-11-11T00:43:34.168Z,0.0
2022-11-11T00:48:44.599Z,0.0
2022-11-11T00:53:47.077Z,0.0
2022-11-11T00:58:53.377Z,0.0
2022-11-11T01:03:59.726Z,0.0
2022-11-11T01:09:06.234Z,0.0
2022-11-11T01:14:12.591Z,0.0
2022-11-11T01:19:22.963Z,0.0
2022-11-11T01:24:49.669Z,0.0
2022-11-11T01:29:52.088Z,0.0
2022-11-11T01:34:42.631Z,0.0
2022-11-11T01:39:45.014Z,0.0
2022-11-11T01:44:51.747Z,0.0
2022-11-11T01:50:02.057Z,0.0
2022-11-11T01:55:18.288Z,0.0
2022-11-11T02:00:01.046Z,0.0
2022-11-11T02:05:06.116Z,0.0
2022-11-11T02:10:23.533Z,0.0
2022-11-11T02:15:31.619Z,0.0
2022-11-11T02:20:41.910Z,0.0
2022-11-11T02:25:48.262Z,0.0
2022-11-11T02:30:50.822Z,0.0
2022-11-11T02:35:58.718Z,0.0
2022-11-11T02:41:05.181Z,0.0
2022-11-11T02:46:15.547Z,0.0
2022-11-11T02:51:17.913Z,0.0
2022-11-11T02:56:28.250Z,0.0
2022-11-11T03:01:30.842Z,0.0
2022-11-11T03:06:26.977Z,0.0
2022-11-11T03:11:32.329Z,0.0
2022-11-11T03:16:50.031Z,0.0
2022-11-11T03:27:08.038Z,0.0
2022-11-11T03:32:12.050Z,0.0
2022-11-11T03:37:18.316Z,0.0
2022-11-11T03:43:04.820Z,0.0
2022-11-11T03:48:09.309Z,0.0
2022-11-11T03:53:15.581Z,0.0
2022-11-11T03:58:21.956Z,0.0
2022-11-11T04:03:48.497Z,0.0
2022-11-11T04:08:24.690Z,0.0
2022-11-11T04:13:30.153Z,0.0
2022-11-11T04:19:07.880Z,0.0
2022-11-11T04:23:54.069Z,0.0
2022-11-11T04:29:00.443Z,0.0
2022-11-11T04:34:06.936Z,0.0
2022-11-11T04:39:13.547Z,0.0
2022-11-11T04:44:19.817Z,0.0
2022-11-11T04:49:30.197Z,0.0
2022-11-11T04:54:32.700Z,0.0
2022-11-11T04:59:39.037Z,0.0
2022-11-11T05:04:45.537Z,0.0
2022-11-11T05:10:52.154Z,0.0
2022-11-11T05:14:58.287Z,0.0
2022-11-11T05:19:54.651Z,0.0
2022-11-11T05:25:11.070Z,0.0
2022-11-11T05:30:07.560Z,0.0
2022-11-11T05:36:36.543Z,0.0
2022-11-11T05:40:20.774Z,0.0
2022-11-11T05:45:37.350Z,0.0
2022-11-11T05:50:42.718Z,0.0
2022-11-11T05:55:50.098Z,0.0
2022-11-11T06:00:56.609Z,0.0
2022-11-11T06:06:02.864Z,0.0
2022-11-11T06:11:13.269Z,0.0
2022-11-11T06:16:15.762Z,4.0
2022-11-11T06:21:22.037Z,8.0
2022-11-11T06:26:32.426Z,16.0
2022-11-11T06:31:34.916Z,32.0
2022-11-11T06:36:41.283Z,56.0
2022-11-11T06:41:37.765Z,96.0
2022-11-11T06:47:08.308Z,144.0
2022-11-11T06:52:13.560Z,220.0
2022-11-11T06:58:39.121Z,332.0
2022-11-11T07:02:37.486Z,476.0
2022-11-11T07:07:09.845Z,664.0
2022-11-11T07:12:26.271Z,876.0
2022-11-11T07:17:22.700Z,1100.0
2022-11-11T07:22:39.379Z,1356.0
2022-11-11T07:27:35.834Z,1632.0
2022-11-11T07:32:56.255Z,1916.0
2022-11-11T07:38:27.330Z,2248.0
2022-11-11T07:43:05.003Z,2792.0
2022-11-11T07:48:11.376Z,3588.0
2022-11-11T07:53:22.110Z,3860.0
2022-11-11T07:58:24.615Z,4228.0
2022-11-11T08:03:34.521Z,4216.0
2022-11-11T08:08:36.938Z,4308.0
2022-11-11T08:13:33.413Z,4652.0
2022-11-11T08:18:38.675Z,5036.0
2022-11-11T08:29:01.692Z,5836.0
2022-11-11T08:34:08.968Z,6244.0
2022-11-11T08:39:15.466Z,6644.0
2022-11-11T08:44:21.986Z,7068.0
2022-11-11T08:49:28.327Z,7500.0
2022-11-11T08:54:34.701Z,7932.0
2022-11-11T08:59:41.204Z,8332.0
2022-11-11T09:04:55.305Z,8668.0
2022-11-11T09:09:43.953Z,9000.0
2022-11-11T09:15:24.631Z,9324.0
2022-11-11T09:20:06.945Z,9660.0
2022-11-11T09:25:13.330Z,10004.0
2022-11-11T09:30:19.726Z,10328.0
2022-11-11T09:35:26.324Z,10668.0
2022-11-11T09:40:22.548Z,11036.0
2022-11-11T09:45:38.855Z,11388.0
2022-11-11T09:50:45.390Z,11684.0
2022-11-11T09:55:51.657Z,11976.0
2022-11-11T10:01:02.080Z,12228.0
2022-11-11T10:05:54.550Z,12388.0
2022-11-11T10:11:14.815Z,12732.0
2022-11-11T10:16:07.218Z,13232.0
2022-11-11T10:21:13.904Z,14644.0
2022-11-11T10:26:30.256Z,23232.0
2022-11-11T10:31:36.641Z,39264.0
2022-11-11T10:36:37.260Z,54944.0
2022-11-11T10:41:39.502Z,61536.0
2022-11-11T10:46:55.920Z,62624.0
2022-11-11T10:51:52.388Z,73568.0
2022-11-11T10:56:58.651Z,67584.0
2022-11-11T11:02:19.080Z,78240.0
2022-11-11T11:07:21.616Z,65952.0
2022-11-11T11:12:27.842Z,73440.0
2022-11-11T11:17:24.199Z,70336.0
2022-11-11T11:22:39.817Z,68960.0
2022-11-11T11:27:51.106Z,70656.0
2022-11-11T11:32:57.483Z,71296.0
2022-11-11T11:38:00.104Z,70176.0
2022-11-11T11:42:56.439Z,61600.0
2022-11-11T11:48:29.931Z,67744.0
2022-11-11T11:53:08.326Z,71264.0
2022-11-11T11:58:15.611Z,63552.0
2022-11-11T12:03:21.962Z,64384.0
2022-11-11T12:08:38.495Z,65664.0
2022-11-11T12:14:28.860Z,51456.0
2022-11-11T12:18:41.125Z,53568.0
2022-11-11T12:23:57.791Z,52864.0
2022-11-11T12:28:54.020Z,48096.0
2022-11-11T12:34:38.471Z,34176.0
2022-11-11T12:40:08.074Z,38528.0
2022-11-11T12:45:07.305Z,38816.0
2022-11-11T12:50:18.813Z,45984.0
2022-11-11T12:55:21.293Z,37056.0
2022-11-11T13:00:27.556Z,54464.0
2022-11-11T13:16:32.090Z,56640.0
2022-11-11T13:21:39.474Z,55040.0
2022-11-11T13:26:45.896Z,52192.0
2022-11-11T13:31:56.408Z,57984.0
2022-11-11T13:36:58.659Z,49152.0
2022-11-11T13:42:25.077Z,47264.0
2022-11-11T13:47:15.534Z,38912.0
2022-11-11T13:52:17.770Z,42560.0
2022-11-11T13:57:24.180Z,46464.0
2022-11-11T14:02:30.764Z,45376.0
2022-11-11T14:07:37.145Z,37056.0
2022-11-11T14:12:47.550Z,28800.0
2022-11-11T14:17:50.038Z,25024.0
2022-11-11T14:22:56.301Z,20064.0
2022-11-11T14:28:02.686Z,13116.0
2022-11-11T14:33:09.203Z,7468.0
2022-11-11T14:38:15.467Z,6612.0
2022-11-11T14:43:22.222Z,4356.0
2022-11-11T14:48:32.460Z,3772.0
2022-11-11T14:53:34.687Z,3216.0
2022-11-11T14:58:31.073Z,2504.0
2022-11-11T15:03:46.610Z,2192.0
2022-11-11T15:10:05.277Z,1900.0
2022-11-11T15:29:09.696Z,836.0
2022-11-11T15:35:24.188Z,604.0
2022-11-11T15:40:27.612Z,428.0
2022-11-11T15:45:14.189Z,292.0
2022-11-11T15:50:40.631Z,172.0
2022-11-11T15:55:40.986Z,108.0
2022-11-11T16:06:19.998Z,24.0
2022-11-11T16:11:31.305Z,12.0
2022-11-11T16:16:33.679Z,4.0
2022-11-11T16:21:30.231Z,0.0
2022-11-11T16:28:17.728Z,0.0
2022-11-11T16:41:57.857Z,0.0
2022-11-11T16:42:05.754Z,0.0
2022-11-11T16:47:02.126Z,0.0
2022-11-11T16:52:08.498Z,0.0
2022-11-11T16:57:25.015Z,0.0
2022-11-11T17:02:35.320Z,0.0
2022-11-11T17:07:41.684Z,0.0
2022-11-11T17:12:44.364Z,0.0
2022-11-11T17:18:18.505Z,0.0
2022-11-11T17:22:56.803Z,0.0
2022-11-11T17:28:07.309Z,0.0
2022-11-11T17:33:37.607Z,0.0
2022-11-11T17:38:05.976Z,0.0
2022-11-11T17:43:22.941Z,0.0
2022-11-11T17:48:18.847Z,0.0
2022-11-11T17:53:35.250Z,0.0
2022-11-11T17:59:01.826Z,0.0
2022-11-11T18:03:38.106Z,0.0
2022-11-11T18:08:54.522Z,0.0
2022-11-11T18:14:00.999Z,0.0
2022-11-11T18:18:57.484Z,0.0
2022-11-11T18:25:51.548Z,0.0
2022-11-11T18:30:00.408Z,0.0
2022-11-11T18:35:10.908Z,0.0
2022-11-11T18:40:13.239Z,0.0
2022-11-11T18:45:19.637Z,0.0
2022-11-11T18:50:26.250Z,0.0
2022-11-11T18:55:32.611Z,0.0
2022-11-11T19:00:43.115Z,0.0
2022-11-11T19:05:45.625Z,0.0
2022-11-11T19:11:15.978Z,0.0
2022-11-11T19:15:48.330Z,0.0
2022-11-11T19:21:04.889Z,0.0
2022-11-11T19:26:11.235Z,0.0
2022-11-11T19:31:17.727Z,0.0
2022-11-11T19:36:28.270Z,0.0
2022-11-11T19:41:30.503Z,0.0
2022-11-11T19:46:36.915Z,0.0
2022-11-11T20:07:52.202Z,0.0
2022-11-11T20:13:19.499Z,0.0
2022-11-11T20:18:29.869Z,0.0
2022-11-11T20:23:08.312Z,0.0
2022-11-11T20:28:13.644Z,0.0
2022-11-11T20:33:22.178Z,0.0
2022-11-11T20:38:18.756Z,0.0
2022-11-11T20:43:42.742Z,0.0
2022-11-11T20:49:36.224Z,0.0
2022-11-11T20:53:59.192Z,0.0
2022-11-11T20:59:06.466Z,0.0
2022-11-11T21:04:36.861Z,0.0
2022-11-11T21:09:15.368Z,0.0
2022-11-11T21:14:49.214Z,0.0
2022-11-11T21:24:38.047Z,0.0
2022-11-11T21:29:48.310Z,0.0
2022-11-11T21:35:02.179Z,0.0
2022-11-11T21:40:00.761Z,0.0
2022-11-11T21:45:08.613Z,0.0
2022-11-11T21:50:15.046Z,0.0
2022-11-11T21:55:22.763Z,0.0
2022-11-11T22:00:29.080Z,0.0
2022-11-11T22:05:35.438Z,0.0
2022-11-11T22:10:42.021Z,0.0
2022-11-11T22:15:48.286Z,0.0
2022-11-11T22:26:01.748Z,0.0
2022-11-11T22:31:08.166Z,0.0
2022-11-11T22:36:14.506Z,0.0
2022-11-11T22:41:41.100Z,0.0
2022-11-11T22:46:27.350Z,0.0
2022-11-11T22:51:33.793Z,0.0
2022-11-11T22:56:40.195Z,0.0
2022-11-11T23:07:28.324Z,0.0
2022-11-11T23:12:35.568Z,0.0
2022-11-11T23:18:10.035Z,0.0
2022-11-11T23:22:47.489Z,0.0
2022-11-11T23:27:58.732Z,0.0
2022-11-11T23:33:01.106Z,0.0
2022-11-11T23:38:07.616Z,0.0
2022-11-11T23:43:03.862Z,0.0
2022-11-11T23:49:32.535Z,0.0
2022-11-11T23:53:26.880Z,0.0
2022-11-11T23:58:33.208Z,0.0
